Kalaheo, HI (96741)

2:27 PM HST on February 19, 2017 (GMT -1000)
Wheeler Army Air Field | | Change Station
Active Advisory: Small Craft Advisory

Elev 837 ft 21.48 °N, 158.04 °W | Updated 29 minutes ago

Rain
Rain
72 °F
Feels Like 72 °F
N
10
Wind Variable Wind from NNE
Gusts 17 mph

Today
High -- | Low -- °F
--% Chance of Precip.
Yesterday
High -- | Low -- °F
Precip. -- in
Pressure 30.14 in
Visibility 10.0 miles
Clouds Few 20000 ft
Dew Point 59 °F
Humidity 63%
Rainfall 0.00 in
Snow Depth Not available.
7:06 AM 6:37 PM
Last Quarter, 39% visible
METAR PHHI 192358Z AUTO 03009G15KT 10SM FEW200 23/15 A3016 RMK AO2 SLP206 T02250152 10225 20190 58016 $
Pressure 30.14 in
Visibility 10.0 miles
Clouds Few 20000 ft
Dew Point 59 °F
Humidity 63%
Rainfall 0.00 in
Snow Depth Not available.
7:06 AM 6:37 PM
Last Quarter, 39% visible
METAR PHHI 192358Z AUTO 03009G15KT 10SM FEW200 23/15 A3016 RMK AO2 SLP206 T02250152 10225 20190 58016 $

Get Your Daily Forecast Email!

Thanks for signing up!

Be on the lookout for a verification email in your inbox.

You'll start receiving the daily forecast at 8 AM.

×

10-Day Weather Forecast

Almanac

Astronomy

Feb. 19, 2017 Rise Set
Actual Time
Civil Twilight
Nautical Twilight
Astronomical Twilight
Moon
Length of Visible Light
Length of Day
Tomorrow will be .
, % of the Moon is Illuminated

Today's Extremes

State Highs State Lows

Community

WunderPhotos

Upload Photos

1,962,540 photos uploaded!

WunderBlog® & News

Nearby

Air Quality

  Air Quality AQ Index Pollutant
Not available.

Snow Depth

Station Depth Elevation

Earthquake Activity

City Distance Mag. Time & Date
Minimum magnitude displayed is 2.5.

Coastal Water Temperatures

Place Temperature

Stations

Nearby Weather Stations

Station Location Temp. Windchill Dew Point Humidity Wind Precip. Elev Updated Type
                   

Watches & Warnings

Small Craft Advisory
Issued: 9:34 AM HST Feb. 19, 2017 – National Weather Service

... Small Craft Advisory remains in effect until 6 PM HST Monday...

* winds and seas... north to northeast winds 10 to 20 kt increasing
to 20 to 30 kt this afternoon... then becoming east Monday. Seas
4 to 7 ft... building to 8 to 12 ft this afternoon.

Precautionary/preparedness actions...

A Small Craft Advisory means that winds speeds of 25 to 33 knots
and/or seas 10 feet or greater are expected to produce conditions
hazardous to small craft. Inexperienced mariners... especially
those operating smaller vessels... should avoid navigating in
these conditions.